createdAt,value
2023-03-05T00:00:55.991Z,3.87
2023-03-05T00:03:23.220Z,4.18
2023-03-05T00:05:57.247Z,3.80
2023-03-05T00:08:24.484Z,3.70
2023-03-05T00:11:02.669Z,3.95
2023-03-05T00:13:29.919Z,3.25
2023-03-05T00:15:57.133Z,3.03
2023-03-05T00:18:24.850Z,3.08
2023-03-05T00:20:52.104Z,3.25
2023-03-05T00:23:19.347Z,3.65
2023-03-05T00:25:46.773Z,3.00
2023-03-05T00:28:14.186Z,3.58
2023-03-05T00:30:41.849Z,3.75
2023-03-05T00:33:12.118Z,3.35
2023-03-05T00:35:41.011Z,3.10
2023-03-05T00:38:08.651Z,2.77
2023-03-05T00:40:38.105Z,3.67
2023-03-05T00:43:06.355Z,2.90
2023-03-05T00:45:33.994Z,2.97
2023-03-05T00:48:01.382Z,3.53
2023-03-05T00:50:28.558Z,2.80
2023-03-05T00:52:55.942Z,1.80
2023-03-05T00:55:23.122Z,2.83
2023-03-05T00:57:50.361Z,2.45
2023-03-05T01:00:18.004Z,2.30
2023-03-05T01:02:45.181Z,3.28
2023-03-05T01:05:14.244Z,2.60
2023-03-05T01:07:41.496Z,2.50
2023-03-05T01:10:09.563Z,3.15
2023-03-05T01:12:38.030Z,2.20
2023-03-05T01:15:06.661Z,2.72
2023-03-05T01:17:34.637Z,3.50
2023-03-05T01:20:01.839Z,1.08
2023-03-05T01:22:29.104Z,3.20
2023-03-05T01:24:56.426Z,1.43
2023-03-05T01:27:23.714Z,2.95
2023-03-05T01:29:50.896Z,3.33
2023-03-05T01:32:18.546Z,1.42
2023-03-05T01:34:45.730Z,2.45
2023-03-05T01:37:12.921Z,2.50
2023-03-05T01:39:40.114Z,3.53
2023-03-05T01:42:07.743Z,3.53
2023-03-05T01:44:35.413Z,2.50
2023-03-05T01:47:03.698Z,2.85
2023-03-05T01:49:38.441Z,2.25
2023-03-05T01:52:08.037Z,2.75
2023-03-05T01:54:40.602Z,3.17
2023-03-05T01:57:12.578Z,3.70
2023-03-05T01:59:41.952Z,3.75
2023-03-05T02:02:09.322Z,2.73
2023-03-05T02:05:00.768Z,3.17
2023-03-05T02:07:29.446Z,2.72
2023-03-05T02:09:56.564Z,2.75
2023-03-05T02:12:23.932Z,3.22
2023-03-05T02:14:59.081Z,3.03
2023-03-05T02:17:30.524Z,3.08
2023-03-05T02:20:08.392Z,2.88
2023-03-05T02:22:35.838Z,2.63
2023-03-05T02:25:15.976Z,2.00
2023-03-05T02:27:47.703Z,3.00
2023-03-05T02:30:14.989Z,2.80
2023-03-05T02:32:42.177Z,2.92
2023-03-05T02:35:09.787Z,2.35
2023-03-05T02:37:36.977Z,3.08
2023-03-05T02:40:06.098Z,2.58
2023-03-05T02:42:33.733Z,2.42
2023-03-05T02:45:02.479Z,1.73
2023-03-05T02:47:29.803Z,2.55
2023-03-05T02:49:57.629Z,2.40
2023-03-05T02:52:25.755Z,2.57
2023-03-05T02:54:53.427Z,2.53
2023-03-05T02:57:20.989Z,3.00
2023-03-05T02:59:48.748Z,2.55
2023-03-05T03:02:17.090Z,2.45
2023-03-05T03:04:45.175Z,2.40
2023-03-05T03:07:13.406Z,2.25
2023-03-05T03:09:42.800Z,2.83
2023-03-05T03:12:11.150Z,2.72
2023-03-05T03:14:41.287Z,2.70
2023-03-05T03:17:13.674Z,2.03
2023-03-05T03:19:41.933Z,2.67
2023-03-05T03:22:10.111Z,2.90
2023-03-05T03:24:38.675Z,2.35
2023-03-05T03:27:06.416Z,2.47
2023-03-05T03:29:33.779Z,3.13
2023-03-05T03:32:00.953Z,3.47
2023-03-05T03:34:28.272Z,3.10
2023-03-05T03:36:55.434Z,2.25
2023-03-05T03:39:23.661Z,3.20
2023-03-05T03:41:52.762Z,2.87
2023-03-05T03:44:21.661Z,3.00
2023-03-05T03:46:50.302Z,3.00
2023-03-05T03:49:25.409Z,2.42
2023-03-05T03:51:54.663Z,2.25
2023-03-05T03:54:22.626Z,2.17
2023-03-05T03:56:50.416Z,3.00
2023-03-05T03:59:17.559Z,2.75
2023-03-05T04:01:44.841Z,3.20
2023-03-05T04:04:12.919Z,2.75
2023-03-05T04:06:40.652Z,2.60
2023-03-05T04:09:10.953Z,2.67
2023-03-05T04:11:38.233Z,3.22
2023-03-05T04:14:05.975Z,3.47
2023-03-05T04:16:33.390Z,2.80
2023-03-05T04:19:00.521Z,3.87
2023-03-05T04:21:27.755Z,2.88
2023-03-05T04:23:54.954Z,3.30
2023-03-05T04:26:22.138Z,3.17
2023-03-05T04:28:49.494Z,3.30
2023-03-05T04:31:17.436Z,2.87
2023-03-05T04:33:44.630Z,3.22
2023-03-05T04:36:11.873Z,2.72
2023-03-05T04:38:39.089Z,3.03
2023-03-05T04:41:06.234Z,2.30
2023-03-05T04:43:33.369Z,2.90
2023-03-05T04:46:00.588Z,2.60
2023-03-05T04:48:27.746Z,2.58
2023-03-05T04:50:54.940Z,2.38
2023-03-05T04:53:22.078Z,3.03
2023-03-05T04:55:55.941Z,2.80
2023-03-05T04:58:23.815Z,3.17
2023-03-05T05:00:51.312Z,2.50
2023-03-05T05:03:18.624Z,2.95
2023-03-05T05:05:45.822Z,2.67
2023-03-05T05:08:13.062Z,2.73
2023-03-05T05:10:41.468Z,2.83
2023-03-05T05:13:08.704Z,2.45
2023-03-05T05:15:35.822Z,2.40
2023-03-05T05:18:03.096Z,2.38
2023-03-05T05:20:30.256Z,2.80
2023-03-05T05:22:57.431Z,3.13
2023-03-05T05:25:24.726Z,2.50
2023-03-05T05:27:51.973Z,3.00
2023-03-05T05:30:19.095Z,2.58
2023-03-05T05:32:46.374Z,2.57
2023-03-05T05:35:13.571Z,2.35
2023-03-05T05:37:40.834Z,1.80
2023-03-05T05:40:08.803Z,2.75
2023-03-05T05:42:36.051Z,1.90
2023-03-05T05:45:03.728Z,2.37
2023-03-05T05:47:31.041Z,2.13
2023-03-05T05:49:58.312Z,2.38
2023-03-05T05:52:25.640Z,2.03
2023-03-05T05:54:52.839Z,2.45
2023-03-05T05:57:20.028Z,2.60
2023-03-05T05:59:47.404Z,2.08
2023-03-05T06:02:14.643Z,2.75
2023-03-05T06:04:41.816Z,2.10
2023-03-05T06:07:09.073Z,2.00
2023-03-05T06:09:36.713Z,2.20
2023-03-05T06:12:04.406Z,1.73
2023-03-05T06:14:31.556Z,2.20
2023-03-05T06:16:58.799Z,1.90
2023-03-05T06:19:26.090Z,2.20
2023-03-05T06:21:53.263Z,2.20
2023-03-05T06:24:20.459Z,1.90
2023-03-05T06:26:48.587Z,2.15
2023-03-05T06:29:16.114Z,2.38
2023-03-05T06:31:43.405Z,2.13
2023-03-05T06:34:10.915Z,2.20
2023-03-05T06:36:38.794Z,2.00
2023-03-05T06:39:06.502Z,2.10
2023-03-05T06:41:33.711Z,1.83
2023-03-05T06:44:03.141Z,1.98
2023-03-05T06:46:33.354Z,2.17
2023-03-05T06:49:02.316Z,2.20
2023-03-05T06:51:35.813Z,2.22
2023-03-05T06:54:07.629Z,1.95
2023-03-05T06:56:36.666Z,1.95
2023-03-05T06:59:04.744Z,2.22
2023-03-05T07:01:31.951Z,1.77
2023-03-05T07:04:00.415Z,2.38
2023-03-05T07:06:27.978Z,1.55
2023-03-05T07:08:56.481Z,1.92
2023-03-05T07:11:24.776Z,1.80
2023-03-05T07:13:52.051Z,1.60
2023-03-05T07:16:21.755Z,1.70
2023-03-05T07:18:49.362Z,2.10
2023-03-05T07:21:22.301Z,1.88
2023-03-05T07:23:50.164Z,2.30
2023-03-05T07:26:17.611Z,1.97
2023-03-05T07:28:44.814Z,2.40
2023-03-05T07:31:21.938Z,1.70
2023-03-05T07:33:50.319Z,1.80
2023-03-05T07:36:17.975Z,2.50
2023-03-05T07:38:45.939Z,3.00
2023-03-05T07:41:19.766Z,2.25
2023-03-05T07:43:48.735Z,2.67
2023-03-05T07:46:18.027Z,2.92
2023-03-05T07:48:45.336Z,3.20
2023-03-05T07:51:19.968Z,2.17
2023-03-05T07:53:49.265Z,2.13
2023-03-05T07:56:24.279Z,2.47
2023-03-05T07:58:51.958Z,2.42
2023-03-05T08:01:19.156Z,2.72
2023-03-05T08:03:46.422Z,3.03
2023-03-05T08:06:13.602Z,2.65
2023-03-05T08:08:40.880Z,3.17
2023-03-05T08:11:13.705Z,2.50
2023-03-05T08:13:41.214Z,2.78
2023-03-05T08:16:11.687Z,2.77
2023-03-05T08:18:39.014Z,2.55
2023-03-05T08:21:06.692Z,3.25
2023-03-05T08:23:34.588Z,3.22
2023-03-05T08:26:01.812Z,2.67
2023-03-05T08:28:29.014Z,3.27
2023-03-05T08:30:56.185Z,3.53
2023-03-05T08:33:23.379Z,2.70
2023-03-05T08:35:50.552Z,3.50
2023-03-05T08:38:20.020Z,2.88
2023-03-05T08:40:48.252Z,2.20
2023-03-05T08:43:17.486Z,2.40
2023-03-05T08:45:44.626Z,2.60
2023-03-05T08:48:11.810Z,2.30
2023-03-05T08:50:39.331Z,2.03
2023-03-05T08:53:07.019Z,3.63
2023-03-05T08:55:34.378Z,2.80
2023-03-05T08:58:01.570Z,2.88
2023-03-05T09:00:28.718Z,2.75
2023-03-05T09:02:56.113Z,2.80
2023-03-05T09:05:23.257Z,2.80
2023-03-05T09:07:50.472Z,2.72
2023-03-05T09:10:18.521Z,2.75
2023-03-05T09:12:45.720Z,2.50
2023-03-05T09:15:12.894Z,2.72
2023-03-05T09:17:42.033Z,2.60
2023-03-05T09:20:12.705Z,2.92
2023-03-05T09:22:40.195Z,2.60
2023-03-05T09:25:08.899Z,3.80
2023-03-05T09:27:36.933Z,3.08
2023-03-05T09:30:06.522Z,2.63
2023-03-05T09:32:33.751Z,3.50
2023-03-05T09:35:00.943Z,3.00
2023-03-05T09:37:29.397Z,3.10
2023-03-05T09:39:57.625Z,3.08
2023-03-05T09:42:55.890Z,2.53
2023-03-05T09:45:55.168Z,2.92
2023-03-05T09:48:48.350Z,3.08
2023-03-05T09:51:29.335Z,2.72
2023-03-05T09:54:18.951Z,2.30
2023-03-05T09:56:50.378Z,2.53
2023-03-05T09:59:35.958Z,2.53
2023-03-05T10:02:12.524Z,2.35
2023-03-05T10:04:51.724Z,2.10
2023-03-05T10:07:22.739Z,2.78
2023-03-05T10:09:58.276Z,2.03
2023-03-05T10:12:48.839Z,1.92
2023-03-05T10:15:25.727Z,2.25
2023-03-05T10:18:20.500Z,2.20
2023-03-05T10:21:04.320Z,1.65
2023-03-05T10:24:00.671Z,2.30
2023-03-05T10:26:57.591Z,2.03
2023-03-05T10:29:46.213Z,1.13
2023-03-05T10:32:22.269Z,1.90
2023-03-05T10:35:17.087Z,1.77
2023-03-05T10:38:05.374Z,1.87
2023-03-05T10:40:41.897Z,1.60
2023-03-05T10:43:29.596Z,0.80
2023-03-05T10:45:58.423Z,0.73
2023-03-05T10:48:38.058Z,1.20
2023-03-05T10:51:30.199Z,1.23
2023-03-05T10:54:12.979Z,1.10
2023-03-05T10:56:40.210Z,1.00
2023-03-05T10:59:07.381Z,1.27
2023-03-05T11:01:37.372Z,1.30
2023-03-05T11:04:26.204Z,2.00
2023-03-05T11:06:53.424Z,1.10
2023-03-05T11:09:32.741Z,1.50
2023-03-05T11:12:21.265Z,0.90
2023-03-05T11:15:22.741Z,1.20
2023-03-05T11:18:25.561Z,1.90
2023-03-05T11:20:52.897Z,1.35
2023-03-05T11:23:26.235Z,1.85
2023-03-05T11:26:22.164Z,1.40
2023-03-05T11:28:52.021Z,1.40
2023-03-05T11:31:19.250Z,1.90
2023-03-05T11:33:59.075Z,1.38
2023-03-05T11:36:34.565Z,1.55
2023-03-05T11:39:10.159Z,1.48
2023-03-05T11:41:44.104Z,0.98
2023-03-05T11:44:19.438Z,1.00
2023-03-05T11:46:52.815Z,1.05
2023-03-05T11:49:23.295Z,1.02
2023-03-05T11:52:00.120Z,0.70
2023-03-05T11:54:33.854Z,1.23
2023-03-05T11:57:03.166Z,1.20
2023-03-05T11:59:36.279Z,1.52
2023-03-05T12:02:06.626Z,1.05
2023-03-05T12:04:35.286Z,1.02
2023-03-05T12:07:04.095Z,1.23
2023-03-05T12:09:47.659Z,1.47
2023-03-05T12:12:36.287Z,1.35
2023-03-05T12:15:12.506Z,1.30
2023-03-05T12:18:04.828Z,1.48
2023-03-05T12:20:54.062Z,0.98
2023-03-05T12:23:22.720Z,1.03
2023-03-05T12:25:53.117Z,1.10
2023-03-05T12:28:29.347Z,1.20
2023-03-05T12:30:59.980Z,0.95
2023-03-05T12:33:43.962Z,1.40
2023-03-05T12:36:17.306Z,1.30
2023-03-05T12:38:51.171Z,1.60
2023-03-05T12:41:25.834Z,1.25
2023-03-05T12:44:05.411Z,1.50
2023-03-05T12:46:37.449Z,1.00
2023-03-05T12:49:23.527Z,0.73
2023-03-05T12:51:53.057Z,1.27
2023-03-05T12:54:35.442Z,1.20
2023-03-05T12:57:24.398Z,1.05
2023-03-05T12:59:58.605Z,1.35
2023-03-05T13:02:34.751Z,1.40
2023-03-05T13:05:16.927Z,1.63
2023-03-05T13:07:44.111Z,2.72
2023-03-05T13:10:28.938Z,0.90
2023-03-05T13:12:58.573Z,1.83
2023-03-05T13:15:26.572Z,1.63
2023-03-05T13:17:57.852Z,1.27
2023-03-05T13:20:34.276Z,1.80
2023-03-05T13:23:14.044Z,1.20
2023-03-05T13:25:41.391Z,1.50
2023-03-05T13:28:14.351Z,1.20
2023-03-05T13:31:02.698Z,1.23
2023-03-05T13:33:34.885Z,1.73
2023-03-05T13:36:02.952Z,1.42
2023-03-05T13:38:40.343Z,1.08
2023-03-05T13:41:19.690Z,1.53
2023-03-05T13:44:01.890Z,1.00
2023-03-05T13:46:38.719Z,1.42
2023-03-05T13:49:26.078Z,0.60
2023-03-05T13:51:56.520Z,1.05
2023-03-05T13:54:25.378Z,1.27
2023-03-05T13:56:59.157Z,1.20
2023-03-05T13:59:30.756Z,0.90
2023-03-05T14:02:15.787Z,1.30
2023-03-05T14:04:44.829Z,1.30
2023-03-05T14:07:26.891Z,1.17
2023-03-05T14:09:54.376Z,1.17
2023-03-05T14:12:21.502Z,1.23
2023-03-05T14:14:49.095Z,1.15
2023-03-05T14:17:35.258Z,1.50
2023-03-05T14:20:12.835Z,1.30
2023-03-05T14:22:45.942Z,1.33
2023-03-05T14:25:36.438Z,0.93
2023-03-05T14:28:06.727Z,0.75
2023-03-05T14:30:36.232Z,0.80
2023-03-05T14:33:03.790Z,0.83
2023-03-05T14:35:31.250Z,1.00
2023-03-05T14:38:00.053Z,1.00
2023-03-05T14:40:33.628Z,1.70
2023-03-05T14:43:04.027Z,1.23
2023-03-05T14:45:33.987Z,1.23
2023-03-05T14:48:04.174Z,0.82
2023-03-05T14:50:56.293Z,1.20
2023-03-05T14:53:31.326Z,1.23
2023-03-05T14:55:58.551Z,1.33
2023-03-05T14:58:29.160Z,1.20
2023-03-05T15:00:57.011Z,1.27
2023-03-05T15:03:25.413Z,1.02
2023-03-05T15:05:55.156Z,1.15
2023-03-05T15:08:32.279Z,1.00
2023-03-05T15:11:00.365Z,1.00
2023-03-05T15:13:27.701Z,1.42
2023-03-05T15:15:55.475Z,1.35
2023-03-05T15:18:23.748Z,0.90
2023-03-05T15:20:54.052Z,1.45
2023-03-05T15:23:21.384Z,1.43
2023-03-05T15:25:48.911Z,1.40
2023-03-05T15:28:16.304Z,1.10
2023-03-05T15:30:46.351Z,1.50
2023-03-05T15:33:15.701Z,1.48
2023-03-05T15:35:43.443Z,1.37
2023-03-05T15:38:10.591Z,2.10
2023-03-05T15:40:37.772Z,1.23
2023-03-05T15:43:05.027Z,1.20
2023-03-05T15:45:32.618Z,1.35
2023-03-05T15:47:59.833Z,1.67
2023-03-05T15:50:27.302Z,1.23
2023-03-05T15:52:54.494Z,1.45
2023-03-05T15:55:21.794Z,2.13
2023-03-05T15:57:50.878Z,1.50
2023-03-05T16:00:25.537Z,1.40
2023-03-05T16:02:53.170Z,1.90
2023-03-05T16:05:20.501Z,1.73
2023-03-05T16:07:51.167Z,1.92
2023-03-05T16:10:22.160Z,2.17
2023-03-05T16:12:53.183Z,2.20
2023-03-05T16:15:21.581Z,1.48
2023-03-05T16:17:53.294Z,1.80
2023-03-05T16:20:21.512Z,1.60
2023-03-05T16:22:49.624Z,1.77
2023-03-05T16:25:17.805Z,1.90
2023-03-05T16:27:45.291Z,2.88
2023-03-05T16:30:15.370Z,2.78
2023-03-05T16:32:43.192Z,2.10
2023-03-05T16:35:12.305Z,2.03
2023-03-05T16:37:40.842Z,1.40
2023-03-05T16:40:10.480Z,1.90
2023-03-05T16:42:37.837Z,1.30
2023-03-05T16:45:06.062Z,1.33
2023-03-05T16:47:33.902Z,1.45
2023-03-05T16:50:01.165Z,1.70
2023-03-05T16:52:28.886Z,1.85
2023-03-05T16:54:56.219Z,1.90
2023-03-05T16:57:25.421Z,1.90
2023-03-05T16:59:54.107Z,3.00
2023-03-05T17:02:21.523Z,3.17
2023-03-05T17:04:50.338Z,3.20
2023-03-05T17:07:18.076Z,2.63
2023-03-05T17:09:47.813Z,2.45
2023-03-05T17:12:15.046Z,2.22
2023-03-05T17:14:42.194Z,1.53
2023-03-05T17:17:09.330Z,1.60
2023-03-05T17:19:36.968Z,1.40
2023-03-05T17:22:04.572Z,1.70
2023-03-05T17:24:32.974Z,1.80
2023-03-05T17:27:00.947Z,1.80
2023-03-05T17:29:28.589Z,1.58
2023-03-05T17:31:55.787Z,1.60
2023-03-05T17:34:35.455Z,2.03
2023-03-05T17:37:04.798Z,2.00
2023-03-05T17:39:32.540Z,2.10
2023-03-05T17:42:00.198Z,2.05
2023-03-05T17:44:27.353Z,1.92
2023-03-05T17:46:54.639Z,1.90
2023-03-05T17:49:21.894Z,2.40
2023-03-05T17:51:49.128Z,2.27
2023-03-05T17:54:16.328Z,3.65
2023-03-05T17:56:43.534Z,4.07
2023-03-05T17:59:10.706Z,3.85
2023-03-05T18:01:38.005Z,3.22
2023-03-05T18:04:05.445Z,3.80
2023-03-05T18:06:32.828Z,2.92
2023-03-05T18:08:59.979Z,3.20
2023-03-05T18:11:27.672Z,2.95
2023-03-05T18:13:54.940Z,2.90
2023-03-05T18:16:23.465Z,2.70
2023-03-05T18:18:51.389Z,3.10
2023-03-05T18:21:24.193Z,3.90
2023-03-05T18:23:51.587Z,4.05
2023-03-05T18:26:18.790Z,3.90
2023-03-05T18:28:46.179Z,3.73
2023-03-05T18:31:13.367Z,4.03
2023-03-05T18:33:41.056Z,4.25
2023-03-05T18:36:10.840Z,3.70
2023-03-05T18:38:38.580Z,4.20
2023-03-05T18:41:06.442Z,4.13
2023-03-05T18:43:33.724Z,4.57
2023-03-05T18:46:04.884Z,4.72
2023-03-05T18:48:32.327Z,4.22
2023-03-05T18:51:01.283Z,4.20
2023-03-05T18:53:29.610Z,4.10
2023-03-05T18:55:56.761Z,3.75
2023-03-05T18:58:25.914Z,4.22
2023-03-05T19:00:53.268Z,4.10
2023-03-05T19:03:22.879Z,3.95
2023-03-05T19:05:51.239Z,4.07
2023-03-05T19:08:18.815Z,4.30
2023-03-05T19:10:46.723Z,4.25
2023-03-05T19:13:40.026Z,3.95
2023-03-05T19:16:08.550Z,3.95
2023-03-05T19:19:17.680Z,3.97
2023-03-05T19:21:49.989Z,3.60
2023-03-05T19:24:17.634Z,3.95
2023-03-05T19:26:45.266Z,3.75
2023-03-05T19:29:12.983Z,3.20
2023-03-05T19:31:40.927Z,3.10
2023-03-05T19:34:08.531Z,2.65
2023-03-05T19:36:35.778Z,2.72
2023-03-05T19:39:07.147Z,2.53
2023-03-05T19:41:35.157Z,2.92
2023-03-05T19:44:03.263Z,2.67
2023-03-05T19:46:31.083Z,3.42
2023-03-05T19:48:58.470Z,2.90
2023-03-05T19:51:26.934Z,3.30
2023-03-05T19:53:54.190Z,4.03
2023-03-05T19:56:21.536Z,3.53
2023-03-05T19:58:49.262Z,4.30
2023-03-05T20:01:16.517Z,5.35
2023-03-05T20:03:47.561Z,7.78
2023-03-05T20:06:15.371Z,6.88
2023-03-05T20:08:42.723Z,9.30
2023-03-05T20:11:11.941Z,8.63
2023-03-05T20:13:39.975Z,13.35
2023-03-05T20:16:18.608Z,32.47
2023-03-05T20:18:46.971Z,32.97
2023-03-05T20:21:21.513Z,34.40
2023-03-05T20:23:58.060Z,34.38
2023-03-05T20:26:26.221Z,30.70
2023-03-05T20:28:54.558Z,29.58
2023-03-05T20:31:24.384Z,28.20
2023-03-05T20:33:51.686Z,28.43
2023-03-05T20:36:18.868Z,27.52
2023-03-05T20:38:46.502Z,26.98
2023-03-05T20:41:17.113Z,27.35
2023-03-05T20:43:46.634Z,26.92
2023-03-05T20:46:22.983Z,31.43
2023-03-05T20:48:53.423Z,35.95
2023-03-05T20:51:24.420Z,33.05
2023-03-05T20:53:54.237Z,31.75
2023-03-05T20:56:21.361Z,30.27
2023-03-05T20:58:48.545Z,30.50
2023-03-05T21:01:15.654Z,29.83
2023-03-05T21:03:42.839Z,33.33
2023-03-05T21:06:09.958Z,31.92
2023-03-05T21:08:37.147Z,26.67
2023-03-05T21:11:08.760Z,29.47
2023-03-05T21:13:36.766Z,30.58
2023-03-05T21:16:09.043Z,23.48
2023-03-05T21:18:36.487Z,19.75
2023-03-05T21:21:04.025Z,16.52
2023-03-05T21:23:31.248Z,14.03
2023-03-05T21:25:58.477Z,13.57
2023-03-05T21:28:25.734Z,11.98
2023-03-05T21:30:54.176Z,11.75
2023-03-05T21:33:23.844Z,9.87
2023-03-05T21:35:56.521Z,9.47
2023-03-05T21:38:25.626Z,9.55
2023-03-05T21:40:53.953Z,8.32
2023-03-05T21:43:23.656Z,6.78
2023-03-05T21:45:53.502Z,7.75
2023-03-05T21:48:21.856Z,7.90
2023-03-05T21:50:49.697Z,8.18
2023-03-05T21:53:17.991Z,7.95
2023-03-05T21:56:25.401Z,8.07
2023-03-05T21:58:53.951Z,8.07
2023-03-05T22:01:21.535Z,7.90
2023-03-05T22:03:49.860Z,7.65
2023-03-05T22:06:18.858Z,7.65
2023-03-05T22:08:47.116Z,8.07
2023-03-05T22:11:16.593Z,8.85
2023-03-05T22:13:44.222Z,8.77
2023-03-05T22:16:11.499Z,7.50
2023-03-05T22:18:38.920Z,7.10
2023-03-05T22:21:14.787Z,8.30
2023-03-05T22:23:42.007Z,7.67
2023-03-05T22:26:09.216Z,7.73
2023-03-05T22:28:38.878Z,8.00
2023-03-05T22:31:06.497Z,7.40
2023-03-05T22:33:33.755Z,7.65
2023-03-05T22:36:06.598Z,7.40
2023-03-05T22:38:33.933Z,7.50
2023-03-05T22:41:01.072Z,8.32
2023-03-05T22:43:28.231Z,7.97
2023-03-05T22:45:55.385Z,8.60
2023-03-05T22:48:22.542Z,8.85
2023-03-05T22:50:55.061Z,9.43
2023-03-05T22:53:22.729Z,8.95
2023-03-05T22:55:50.575Z,9.38
2023-03-05T22:58:17.783Z,9.48
2023-03-05T23:00:44.949Z,9.55
2023-03-05T23:03:12.230Z,9.33
2023-03-05T23:05:39.623Z,8.57
2023-03-05T23:08:07.518Z,8.40
2023-03-05T23:10:34.999Z,7.72
2023-03-05T23:13:02.578Z,7.23
2023-03-05T23:15:32.664Z,6.77
2023-03-05T23:17:59.871Z,7.38
2023-03-05T23:20:30.433Z,6.57
2023-03-05T23:22:58.074Z,6.40
2023-03-05T23:25:29.424Z,6.40
2023-03-05T23:27:58.042Z,7.07
2023-03-05T23:30:34.523Z,6.47
2023-03-05T23:33:17.988Z,6.20
2023-03-05T23:35:57.367Z,5.93
2023-03-05T23:38:26.339Z,5.40
2023-03-05T23:40:55.884Z,4.47
2023-03-05T23:43:24.846Z,4.30
2023-03-05T23:45:56.172Z,4.28
2023-03-05T23:48:25.251Z,4.38
2023-03-05T23:50:53.018Z,4.47
2023-03-05T23:53:24.099Z,3.77
2023-03-05T23:55:52.247Z,4.45
2023-03-05T23:58:20.516Z,4.97
